createdAt,value
2016-05-28T00:00:02.829Z,89.9
2016-05-28T00:00:05.470Z,89.8
2016-05-28T00:00:08.423Z,89.9
2016-05-28T00:00:10.688Z,90
2016-05-28T00:00:14.454Z,89.7
2016-05-28T00:00:17.391Z,90.3
2016-05-28T00:00:20.329Z,90.4
2016-05-28T00:00:23.282Z,90.6
2016-05-28T00:00:27.048Z,90.4
2016-05-28T00:00:29.845Z,90.6
2016-05-28T00:00:32.641Z,90.1
2016-05-28T00:00:35.579Z,90.3
2016-05-28T00:00:39.345Z,90.1
2016-05-28T00:00:42.141Z,90.2
2016-05-28T00:00:44.923Z,90.1
2016-05-28T00:00:47.879Z,90.3
2016-05-28T00:00:51.785Z,90.3
2016-05-28T00:00:54.582Z,90.6
2016-05-28T00:00:57.535Z,90.4
2016-05-28T00:01:00.332Z,90.4
2016-05-28T00:01:04.254Z,90.3
2016-05-28T00:01:07.191Z,90.3
2016-05-28T00:01:10.129Z,90.3
2016-05-28T00:01:13.066Z,90.3
2016-05-28T00:01:16.848Z,90.3
2016-05-28T00:01:19.785Z,90.2
2016-05-28T00:01:22.723Z,90.3
2016-05-28T00:01:25.676Z,90.3
2016-05-28T00:01:29.441Z,90.1
2016-05-28T00:01:32.394Z,90.4
2016-05-28T00:01:35.332Z,90.3
2016-05-28T00:01:38.301Z,90.3
2016-05-28T00:01:42.066Z,90.3
2016-05-28T00:01:44.879Z,90.3
2016-05-28T00:01:47.819Z,90.4
2016-05-28T00:01:50.772Z,90.5
2016-05-28T00:01:54.679Z,90.5
2016-05-28T00:01:57.460Z,90.3
2016-05-28T00:02:00.413Z,90.2
2016-05-28T00:02:03.351Z,90.2
2016-05-28T00:02:07.288Z,90.3
2016-05-28T00:02:10.351Z,90.2
2016-05-28T00:02:13.288Z,90.1
2016-05-28T00:02:16.226Z,89.8
2016-05-28T00:02:19.991Z,90
2016-05-28T00:02:22.944Z,89.8
2016-05-28T00:02:25.882Z,89.8
2016-05-28T00:02:28.835Z,89.8
2016-05-28T00:02:32.601Z,90
2016-05-28T00:02:35.554Z,90
2016-05-28T00:02:38.507Z,90
2016-05-28T00:02:41.444Z,89.9
2016-05-28T00:02:45.366Z,90.1
2016-05-28T00:02:48.307Z,90
2016-05-28T00:02:50.947Z,90.1
2016-05-28T00:02:53.744Z,90.2
2016-05-28T00:02:57.525Z,90.2
2016-05-28T00:03:00.494Z,90.3
2016-05-28T00:03:03.291Z,90.6
2016-05-28T00:03:06.229Z,90.7
2016-05-28T00:03:10.150Z,90.3
2016-05-28T00:03:12.932Z,90.3
2016-05-28T00:03:15.869Z,90.6
2016-05-28T00:03:18.666Z,90.6
2016-05-28T00:03:22.432Z,90.6
2016-05-28T00:03:25.385Z,90.3
2016-05-28T00:03:28.166Z,90.6
2016-05-28T00:03:30.947Z,90.5
2016-05-28T00:03:34.729Z,90.6
2016-05-28T00:03:37.666Z,90.2
2016-05-28T00:03:40.463Z,90.5
2016-05-28T00:03:43.416Z,90.6
2016-05-28T00:03:47.184Z,90.5
2016-05-28T00:03:50.121Z,90.4
2016-05-28T00:03:53.059Z,90.2
2016-05-28T00:03:56.012Z,90.4
2016-05-28T00:03:59.777Z,90.3
2016-05-28T00:04:02.715Z,90.1
2016-05-28T00:04:05.652Z,90.2
2016-05-28T00:04:08.309Z,90.3
2016-05-28T00:04:12.231Z,90.4
2016-05-28T00:04:15.168Z,90.4
2016-05-28T00:04:18.106Z,90.3
2016-05-28T00:04:20.887Z,90.4
2016-05-28T00:04:24.824Z,90.7
2016-05-28T00:04:27.918Z,90.8
2016-05-28T00:04:31.168Z,90.8
2016-05-28T00:04:34.965Z,90.8
2016-05-28T00:04:37.965Z,90.8
2016-05-28T00:04:40.949Z,90.5
2016-05-28T00:04:43.590Z,90.6
2016-05-28T00:04:47.530Z,90.9
2016-05-28T00:04:50.984Z,90.6
2016-05-28T00:04:53.640Z,90.8
2016-05-28T00:04:56.296Z,90.8
2016-05-28T00:05:00.874Z,90.8
2016-05-28T00:05:03.827Z,90.6
2016-05-28T00:05:06.780Z,90.5
2016-05-28T00:05:10.937Z,90.8
2016-05-28T00:05:13.734Z,90.8
2016-05-28T00:05:17.327Z,90.8
2016-05-28T00:05:21.234Z,90.8
2016-05-28T00:05:24.046Z,90.8
2016-05-28T00:05:27.265Z,90.8
2016-05-28T00:05:30.859Z,90.7
2016-05-28T00:05:34.765Z,90.8
2016-05-28T00:05:37.562Z,90.8
2016-05-28T00:05:40.499Z,90.6
2016-05-28T00:05:43.437Z,90.4
2016-05-28T00:05:47.377Z,90.7
2016-05-28T00:05:50.330Z,90.2
2016-05-28T00:05:53.268Z,90.4
2016-05-28T00:05:56.065Z,90.8
2016-05-28T00:05:59.830Z,90.7
2016-05-28T00:06:02.627Z,90.4
2016-05-28T00:06:05.565Z,90.7
2016-05-28T00:06:08.518Z,90.8
2016-05-28T00:06:12.299Z,90.8
2016-05-28T00:06:15.237Z,90.8
2016-05-28T00:06:18.033Z,90.9
2016-05-28T00:06:20.971Z,90.8
2016-05-28T00:06:24.893Z,91
2016-05-28T00:06:27.533Z,90.7
2016-05-28T00:06:30.471Z,90.8
2016-05-28T00:06:33.424Z,90.8
2016-05-28T00:06:37.362Z,90.6
2016-05-28T00:06:40.299Z,90.9
2016-05-28T00:06:43.252Z,90.8
2016-05-28T00:06:46.190Z,91.1
2016-05-28T00:06:50.114Z,90.8
2016-05-28T00:06:52.910Z,90.6
2016-05-28T00:06:55.692Z,90.6
2016-05-28T00:06:58.629Z,90.8
2016-05-28T00:07:02.551Z,90.8
2016-05-28T00:07:05.489Z,90.9
2016-05-28T00:07:08.442Z,90.6
2016-05-28T00:07:11.379Z,90.8
2016-05-28T00:07:15.285Z,90.8
2016-05-28T00:07:18.067Z,90.8
2016-05-28T00:07:21.020Z,90.4
2016-05-28T00:07:23.973Z,90.3
2016-05-28T00:07:27.598Z,90.6
2016-05-28T00:07:30.551Z,90.2
2016-05-28T00:07:33.489Z,90.2
2016-05-28T00:07:36.426Z,90.4
2016-05-28T00:07:40.192Z,90.5
2016-05-28T00:07:43.129Z,90.4
2016-05-28T00:07:46.082Z,90.5
2016-05-28T00:07:48.883Z,90.5
2016-05-28T00:07:52.805Z,90.3
2016-05-28T00:07:55.743Z,90.3
2016-05-28T00:07:58.696Z,90.9
2016-05-28T00:08:01.633Z,90.8
2016-05-28T00:08:05.399Z,90.8
2016-05-28T00:08:08.352Z,90.8
2016-05-28T00:08:11.305Z,90.8
2016-05-28T00:08:14.274Z,90.8
2016-05-28T00:08:18.039Z,90.8
2016-05-28T00:08:20.821Z,90.9
2016-05-28T00:08:23.758Z,90.8
2016-05-28T00:08:26.711Z,90.7
2016-05-28T00:08:30.633Z,90.6
2016-05-28T00:08:33.414Z,90.3
2016-05-28T00:08:36.352Z,90.6
2016-05-28T00:08:39.305Z,90.6
2016-05-28T00:08:43.227Z,90.4
2016-05-28T00:08:46.164Z,90.1
2016-05-28T00:08:48.963Z,90.2
2016-05-28T00:08:51.745Z,90.2
2016-05-28T00:08:55.510Z,90.1
2016-05-28T00:08:58.463Z,90.3
2016-05-28T00:09:01.401Z,90.2
2016-05-28T00:09:04.338Z,90.5
2016-05-28T00:09:08.260Z,90.3
2016-05-28T00:09:11.198Z,90.5
2016-05-28T00:09:14.151Z,90.5
2016-05-28T00:09:16.932Z,90.2
2016-05-28T00:09:20.557Z,90.3
2016-05-28T00:09:23.495Z,90.1
2016-05-28T00:09:26.432Z,90
2016-05-28T00:09:29.370Z,89.8
2016-05-28T00:09:33.291Z,89.8
2016-05-28T00:09:36.229Z,89.9
2016-05-28T00:09:39.182Z,89.8
2016-05-28T00:09:42.120Z,90.1
2016-05-28T00:09:46.041Z,90
2016-05-28T00:09:48.840Z,90.2
2016-05-28T00:09:51.809Z,89.9
2016-05-28T00:09:54.747Z,89.8
2016-05-28T00:09:58.668Z,89.8
2016-05-28T00:10:01.606Z,90
2016-05-28T00:10:04.403Z,89.8
2016-05-28T00:10:07.184Z,90
2016-05-28T00:10:11.122Z,89.9
2016-05-28T00:10:14.059Z,90
2016-05-28T00:10:16.840Z,90
2016-05-28T00:10:19.793Z,89.9
2016-05-28T00:10:23.559Z,89.9
2016-05-28T00:10:26.497Z,90.1
2016-05-28T00:10:29.450Z,90.1
2016-05-28T00:10:32.387Z,90.1
2016-05-28T00:10:36.309Z,90.1
2016-05-28T00:10:39.106Z,89.8
2016-05-28T00:10:42.059Z,89.5
2016-05-28T00:10:44.684Z,90
2016-05-28T00:10:48.516Z,90.1
2016-05-28T00:10:51.454Z,90
2016-05-28T00:10:54.235Z,90.2
2016-05-28T00:10:57.016Z,90
2016-05-28T00:11:00.954Z,89.8
2016-05-28T00:11:03.907Z,89.8
2016-05-28T00:11:06.844Z,89.6
2016-05-28T00:11:09.626Z,89.6
2016-05-28T00:11:13.251Z,89.7
2016-05-28T00:11:16.204Z,89.8
2016-05-28T00:11:18.829Z,89.7
2016-05-28T00:11:21.626Z,89.7
2016-05-28T00:11:25.391Z,89.9
2016-05-28T00:11:28.329Z,89.7
2016-05-28T00:11:31.126Z,89.7
2016-05-28T00:11:33.907Z,89.9
2016-05-28T00:11:37.829Z,89.8
2016-05-28T00:11:40.782Z,89.6
2016-05-28T00:11:43.719Z,89.8
2016-05-28T00:11:46.674Z,89.6
2016-05-28T00:11:50.596Z,90.1
2016-05-28T00:11:53.393Z,90.2
2016-05-28T00:11:56.331Z,90
2016-05-28T00:11:59.284Z,90
2016-05-28T00:12:03.049Z,89.9
2016-05-28T00:12:05.831Z,89.9
2016-05-28T00:12:08.628Z,90.1
2016-05-28T00:12:11.424Z,90.2
2016-05-28T00:12:15.346Z,89.9
2016-05-28T00:12:18.299Z,90.3
2016-05-28T00:12:21.112Z,89.8
2016-05-28T00:12:24.049Z,90.1
2016-05-28T00:12:28.003Z,89.8
2016-05-28T00:12:30.940Z,90
2016-05-28T00:12:33.878Z,90
2016-05-28T00:12:36.815Z,89.8
2016-05-28T00:12:40.628Z,90
2016-05-28T00:12:43.409Z,90.1
2016-05-28T00:12:46.362Z,90
2016-05-28T00:12:49.302Z,89.8
2016-05-28T00:12:53.224Z,89.8
2016-05-28T00:12:56.162Z,90.3
2016-05-28T00:12:59.099Z,90
2016-05-28T00:13:02.037Z,89.8
2016-05-28T00:13:05.959Z,89.8
2016-05-28T00:13:08.912Z,90.2
2016-05-28T00:13:11.709Z,89.8
2016-05-28T00:13:14.662Z,90
2016-05-28T00:13:18.584Z,90.2
2016-05-28T00:13:21.365Z,90.2
2016-05-28T00:13:24.162Z,90
2016-05-28T00:13:26.959Z,90.1
2016-05-28T00:13:30.896Z,90
2016-05-28T00:13:33.709Z,90
2016-05-28T00:13:36.646Z,90
2016-05-28T00:13:39.584Z,89.7
2016-05-28T00:13:43.506Z,90
2016-05-28T00:13:46.287Z,90.3
2016-05-28T00:13:49.227Z,90.2
2016-05-28T00:13:52.180Z,90.3
2016-05-28T00:13:56.102Z,90.2
2016-05-28T00:13:59.055Z,90.5
2016-05-28T00:14:01.852Z,90.4
2016-05-28T00:14:04.805Z,90.5
2016-05-28T00:14:08.587Z,90.5
2016-05-28T00:14:11.524Z,90.5
2016-05-28T00:14:14.462Z,90.4
2016-05-28T00:14:17.259Z,90.6
2016-05-28T00:14:21.165Z,90.6
2016-05-28T00:14:23.962Z,90.7
2016-05-28T00:14:26.899Z,90.3
2016-05-28T00:14:29.852Z,90.2
2016-05-28T00:14:33.774Z,90.2
2016-05-28T00:14:36.712Z,90.3
2016-05-28T00:14:39.649Z,90.4
2016-05-28T00:14:42.618Z,90.4
2016-05-28T00:14:46.540Z,90.4
2016-05-28T00:14:49.479Z,90.3
2016-05-28T00:14:52.276Z,90.3
2016-05-28T00:14:55.214Z,90.3
2016-05-28T00:14:58.995Z,90.3
2016-05-28T00:15:01.792Z,90.4
2016-05-28T00:15:04.745Z,90.4
2016-05-28T00:15:07.729Z,90.6
2016-05-28T00:15:11.495Z,90.8
2016-05-28T00:15:14.276Z,90.5
2016-05-28T00:15:17.057Z,91
2016-05-28T00:15:19.995Z,90.8
2016-05-28T00:15:23.776Z,90.7
2016-05-28T00:15:26.557Z,90.6
2016-05-28T00:15:29.511Z,90.7
2016-05-28T00:15:32.307Z,91.1
2016-05-28T00:15:36.229Z,90.7
2016-05-28T00:15:39.167Z,91.1
2016-05-28T00:15:41.948Z,91.1
2016-05-28T00:15:44.901Z,90.5
2016-05-28T00:15:48.810Z,90.8
2016-05-28T00:15:51.607Z,90.6
2016-05-28T00:15:54.404Z,90.6
2016-05-28T00:15:57.342Z,90.9
2016-05-28T00:16:01.264Z,91
2016-05-28T00:16:04.201Z,90.8
2016-05-28T00:16:07.139Z,90.6
2016-05-28T00:16:10.076Z,90.3
2016-05-28T00:16:14.014Z,90.8
2016-05-28T00:16:16.967Z,90.2
2016-05-28T00:16:19.764Z,90.3
2016-05-28T00:16:22.701Z,90.6
2016-05-28T00:16:26.623Z,90
2016-05-28T00:16:29.420Z,90.2
2016-05-28T00:16:32.357Z,90.1
2016-05-28T00:16:35.295Z,90.2
2016-05-28T00:16:39.232Z,90.1
2016-05-28T00:16:42.170Z,90.1
2016-05-28T00:16:45.123Z,90.3
2016-05-28T00:16:48.078Z,90.1
2016-05-28T00:16:52.000Z,90.3
2016-05-28T00:16:54.937Z,90.1
2016-05-28T00:16:57.891Z,90.1
2016-05-28T00:17:00.828Z,90.3
2016-05-28T00:17:04.609Z,90.4
2016-05-28T00:17:07.094Z,90.2
2016-05-28T00:17:10.047Z,90.4
2016-05-28T00:17:13.000Z,90.3
2016-05-28T00:17:16.750Z,90.5
2016-05-28T00:17:19.703Z,90.5
2016-05-28T00:17:22.484Z,90.5
2016-05-28T00:17:25.422Z,90.4
2016-05-28T00:17:29.187Z,90.6
2016-05-28T00:17:32.141Z,90.3
2016-05-28T00:17:35.078Z,89.8
2016-05-28T00:17:38.016Z,89.8
2016-05-28T00:17:41.797Z,90
2016-05-28T00:17:44.734Z,89.9
2016-05-28T00:17:47.675Z,90.1
2016-05-28T00:17:50.472Z,89.9
2016-05-28T00:17:54.394Z,90.1
2016-05-28T00:17:57.347Z,89.9
2016-05-28T00:18:00.128Z,90.1
2016-05-28T00:18:03.065Z,90
2016-05-28T00:18:06.831Z,89.9
2016-05-28T00:18:09.472Z,89.9
2016-05-28T00:18:12.425Z,90.1
2016-05-28T00:18:15.065Z,89.8
2016-05-28T00:18:18.987Z,90
2016-05-28T00:18:21.925Z,89.8
2016-05-28T00:18:24.722Z,89.9
2016-05-28T00:18:27.659Z,90
2016-05-28T00:18:31.581Z,90
2016-05-28T00:18:34.534Z,90.2
2016-05-28T00:18:37.456Z,90.6
2016-05-28T00:18:40.409Z,90.6
2016-05-28T00:18:44.331Z,90.4
2016-05-28T00:18:47.287Z,90.2
2016-05-28T00:18:50.084Z,90.3
2016-05-28T00:18:53.022Z,90.1
2016-05-28T00:18:56.787Z,90.3
2016-05-28T00:18:59.740Z,90.5
2016-05-28T00:19:02.678Z,90.5
2016-05-28T00:19:05.631Z,90.4
2016-05-28T00:19:09.553Z,90.9
2016-05-28T00:19:12.506Z,90.7
2016-05-28T00:19:15.443Z,90.8
2016-05-28T00:19:18.240Z,90.4
2016-05-28T00:19:22.037Z,90.5
2016-05-28T00:19:25.225Z,90.8
2016-05-28T00:19:28.975Z,90.8
2016-05-28T00:19:32.928Z,90.8
2016-05-28T00:19:36.037Z,90.8
2016-05-28T00:19:39.365Z,90.9
2016-05-28T00:19:43.850Z,90.8
2016-05-28T00:19:47.400Z,90.8
2016-05-28T00:19:50.775Z,90.6
2016-05-28T00:19:55.618Z,90.7
2016-05-28T00:19:59.181Z,91
2016-05-28T00:20:01.837Z,91.1
2016-05-28T00:20:05.462Z,90.6
2016-05-28T00:20:08.259Z,91.1
2016-05-28T00:20:11.431Z,90.7
2016-05-28T00:20:14.603Z,90.7
2016-05-28T00:20:18.228Z,91.2
2016-05-28T00:20:21.181Z,91.1
2016-05-28T00:20:23.993Z,91
2016-05-28T00:20:26.790Z,91.3
2016-05-28T00:20:31.243Z,91.3
2016-05-28T00:20:34.087Z,91.3
2016-05-28T00:20:37.025Z,91.2
2016-05-28T00:20:40.946Z,91
2016-05-28T00:20:43.900Z,91
2016-05-28T00:20:46.839Z,91.1
2016-05-28T00:20:49.792Z,91
2016-05-28T00:20:53.714Z,91
2016-05-28T00:20:56.495Z,91.5
2016-05-28T00:20:59.448Z,91.1
2016-05-28T00:21:02.386Z,91
2016-05-28T00:21:06.308Z,91.6
2016-05-28T00:21:09.089Z,90.9
2016-05-28T00:21:12.027Z,90.9
2016-05-28T00:21:14.980Z,91
2016-05-28T00:21:18.902Z,91.1
2016-05-28T00:21:21.683Z,91.2
2016-05-28T00:21:24.636Z,91.3
2016-05-28T00:21:27.573Z,90.7
2016-05-28T00:21:31.355Z,90.7
2016-05-28T00:21:34.136Z,90.6
2016-05-28T00:21:36.933Z,91
2016-05-28T00:21:39.870Z,90.6
2016-05-28T00:21:43.652Z,91
2016-05-28T00:21:46.589Z,91
2016-05-28T00:21:49.389Z,90.6
2016-05-28T00:21:52.186Z,90.5
2016-05-28T00:21:56.108Z,90.9
2016-05-28T00:21:58.764Z,90.9
2016-05-28T00:22:01.701Z,90.8
2016-05-28T00:22:04.655Z,90.6
2016-05-28T00:22:08.405Z,90.8
2016-05-28T00:22:11.045Z,90.6
2016-05-28T00:22:13.998Z,90.3
2016-05-28T00:22:16.936Z,90.6
2016-05-28T00:22:20.858Z,90.8
2016-05-28T00:22:23.795Z,90.9
2016-05-28T00:22:26.592Z,90.8
2016-05-28T00:22:29.389Z,90.8
2016-05-28T00:22:33.014Z,90.5
2016-05-28T00:22:35.951Z,90.9
2016-05-28T00:22:38.733Z,91
2016-05-28T00:22:41.514Z,90.8
2016-05-28T00:22:45.436Z,90.7
2016-05-28T00:22:48.251Z,91
2016-05-28T00:22:51.048Z,90.6
2016-05-28T00:22:54.033Z,90.7
2016-05-28T00:22:57.798Z,90.7
2016-05-28T00:23:00.751Z,90.9
2016-05-28T00:23:03.689Z,90.6
2016-05-28T00:23:06.642Z,90.8
2016-05-28T00:23:10.423Z,91
2016-05-28T00:23:13.361Z,90.8
2016-05-28T00:23:16.158Z,91
2016-05-28T00:23:19.095Z,90.8
2016-05-28T00:23:22.704Z,90.9
2016-05-28T00:23:25.658Z,90.6
2016-05-28T00:23:28.439Z,90.5
2016-05-28T00:23:31.376Z,90.5
2016-05-28T00:23:35.142Z,90.9
2016-05-28T00:23:37.923Z,90.8
2016-05-28T00:23:40.876Z,90.7
2016-05-28T00:23:43.814Z,90.9
2016-05-28T00:23:47.582Z,90.7
2016-05-28T00:23:50.379Z,90.2
2016-05-28T00:23:53.317Z,90.5
2016-05-28T00:23:56.114Z,90.7
2016-05-28T00:24:00.051Z,90.4
2016-05-28T00:24:03.004Z,90.2
2016-05-28T00:24:05.957Z,90.2
2016-05-28T00:24:08.582Z,90.1
2016-05-28T00:24:12.504Z,90.3
2016-05-28T00:24:15.442Z,90.3
2016-05-28T00:24:18.239Z,90.2
2016-05-28T00:24:21.192Z,90.3
2016-05-28T00:24:24.957Z,90.2
2016-05-28T00:24:27.754Z,90.2
2016-05-28T00:24:30.707Z,90.1
2016-05-28T00:24:33.489Z,90.2
2016-05-28T00:24:37.254Z,90.1
2016-05-28T00:24:40.051Z,90.4
2016-05-28T00:24:42.989Z,90.4
2016-05-28T00:24:45.942Z,90.3
2016-05-28T00:24:49.709Z,90.4
2016-05-28T00:24:52.506Z,90.1
2016-05-28T00:24:55.459Z,90.2
2016-05-28T00:24:58.413Z,90.3
2016-05-28T00:25:02.178Z,90.4
2016-05-28T00:25:05.116Z,90.7
2016-05-28T00:25:08.053Z,90.5
2016-05-28T00:25:10.834Z,90.5
2016-05-28T00:25:14.756Z,90.3
2016-05-28T00:25:17.709Z,90.4
2016-05-28T00:25:20.663Z,90.7
2016-05-28T00:25:23.600Z,90.6
2016-05-28T00:25:27.366Z,90.6
2016-05-28T00:25:30.303Z,90.8
2016-05-28T00:25:33.241Z,90.6
2016-05-28T00:25:36.194Z,90.8
2016-05-28T00:25:40.131Z,90.8
2016-05-28T00:25:43.069Z,90.8
2016-05-28T00:25:46.022Z,90.3
2016-05-28T00:25:48.961Z,90.6
2016-05-28T00:25:52.727Z,90.3
2016-05-28T00:25:55.524Z,90.6
2016-05-28T00:25:58.477Z,90.6
2016-05-28T00:26:01.415Z,90.4
2016-05-28T00:26:05.336Z,90.6
2016-05-28T00:26:08.274Z,90.8
2016-05-28T00:26:11.227Z,90.9
2016-05-28T00:26:13.852Z,90.8
2016-05-28T00:26:17.774Z,90.6
2016-05-28T00:26:20.727Z,90.8
2016-05-28T00:26:23.665Z,90.5
2016-05-28T00:26:26.446Z,91.1
2016-05-28T00:26:30.227Z,91
2016-05-28T00:26:33.165Z,90.8
2016-05-28T00:26:35.961Z,91.1
2016-05-28T00:26:38.899Z,91.1
2016-05-28T00:26:42.665Z,91.2
2016-05-28T00:26:45.461Z,91.2
2016-05-28T00:26:48.419Z,91.2
2016-05-28T00:26:51.059Z,91.4
2016-05-28T00:26:54.981Z,91.1
2016-05-28T00:26:57.778Z,90.9
2016-05-28T00:27:00.731Z,91.2
2016-05-28T00:27:03.512Z,91.1
2016-05-28T00:27:07.450Z,91
2016-05-28T00:27:10.387Z,91.6
2016-05-28T00:27:13.340Z,91.2
2016-05-28T00:27:16.278Z,91.4
2016-05-28T00:27:19.903Z,91
2016-05-28T00:27:22.856Z,91.4
2016-05-28T00:27:25.809Z,91.4
2016-05-28T00:27:28.747Z,91.5
2016-05-28T00:27:32.669Z,91
2016-05-28T00:27:35.450Z,91
2016-05-28T00:27:38.247Z,91.3
2016-05-28T00:27:41.184Z,91
2016-05-28T00:27:45.106Z,91.1
2016-05-28T00:27:48.046Z,91.1
2016-05-28T00:27:51.014Z,91
2016-05-28T00:27:53.952Z,91
2016-05-28T00:27:57.874Z,90.8
2016-05-28T00:28:00.827Z,91.3
2016-05-28T00:28:03.608Z,91
2016-05-28T00:28:06.405Z,91.2
2016-05-28T00:28:10.342Z,91.2
2016-05-28T00:28:13.139Z,91.3
2016-05-28T00:28:15.936Z,91
2016-05-28T00:28:18.874Z,91.1
2016-05-28T00:28:22.358Z,90.9
2016-05-28T00:28:25.139Z,90.9
2016-05-28T00:28:28.092Z,90.6
2016-05-28T00:28:31.030Z,90.7
2016-05-28T00:28:34.952Z,91
2016-05-28T00:28:38.217Z,91.4
2016-05-28T00:28:41.014Z,91.3
2016-05-28T00:28:43.952Z,91.2
2016-05-28T00:28:47.877Z,91.4
2016-05-28T00:28:50.845Z,91.2
2016-05-28T00:28:53.470Z,91.2
2016-05-28T00:28:56.267Z,91.2
2016-05-28T00:29:00.189Z,91.4
2016-05-28T00:29:02.986Z,91.3
2016-05-28T00:29:05.783Z,91.2
2016-05-28T00:29:08.564Z,91.1
2016-05-28T00:29:12.486Z,91.2
2016-05-28T00:29:15.283Z,91.1
2016-05-28T00:29:18.064Z,91.3
2016-05-28T00:29:21.017Z,91.3
2016-05-28T00:29:24.955Z,91
2016-05-28T00:29:27.908Z,91.1
2016-05-28T00:29:30.861Z,91.1
2016-05-28T00:29:33.502Z,91.2
2016-05-28T00:29:37.267Z,91
2016-05-28T00:29:40.205Z,91.6
2016-05-28T00:29:42.845Z,91.4
2016-05-28T00:29:45.783Z,91.5
2016-05-28T00:29:49.708Z,91.4
2016-05-28T00:29:52.661Z,91
2016-05-28T00:29:55.458Z,91
2016-05-28T00:29:58.395Z,91.5
2016-05-28T00:30:02.333Z,90.9
2016-05-28T00:30:05.270Z,91.1
2016-05-28T00:30:08.208Z,91.1
2016-05-28T00:30:11.161Z,91.3
2016-05-28T00:30:14.958Z,91.1
2016-05-28T00:30:17.927Z,90.8
2016-05-28T00:30:20.864Z,90.7
2016-05-28T00:30:23.802Z,91.4
2016-05-28T00:30:27.723Z,90.6
2016-05-28T00:30:30.520Z,90.9
2016-05-28T00:30:33.473Z,90.6
2016-05-28T00:30:36.411Z,91.1
2016-05-28T00:30:40.036Z,90.5
2016-05-28T00:30:42.973Z,91.2
2016-05-28T00:30:45.911Z,90.7
2016-05-28T00:30:48.866Z,91
2016-05-28T00:30:52.772Z,90.9
2016-05-28T00:30:55.569Z,90.6
2016-05-28T00:30:58.507Z,90.8
2016-05-28T00:31:01.460Z,91
2016-05-28T00:31:05.382Z,90.8
2016-05-28T00:31:08.319Z,91.1
2016-05-28T00:31:11.257Z,91
2016-05-28T00:31:14.054Z,91.3
2016-05-28T00:31:17.960Z,91.3
2016-05-28T00:31:20.913Z,91.2
2016-05-28T00:31:23.850Z,91.3
2016-05-28T00:31:26.804Z,91
2016-05-28T00:31:30.585Z,91.3
2016-05-28T00:31:33.522Z,91.2
2016-05-28T00:31:36.163Z,91.3
2016-05-28T00:31:38.944Z,91.1
2016-05-28T00:31:42.866Z,91.1
2016-05-28T00:31:45.647Z,90.8
2016-05-28T00:31:48.603Z,90.6
2016-05-28T00:31:51.541Z,91.1
2016-05-28T00:31:55.478Z,91.1
2016-05-28T00:31:58.416Z,91.1
2016-05-28T00:32:01.213Z,91
2016-05-28T00:32:04.150Z,90.7
2016-05-28T00:32:07.603Z,90.8
2016-05-28T00:32:10.557Z,91
2016-05-28T00:32:13.494Z,91.2
2016-05-28T00:32:16.432Z,91.2
2016-05-28T00:32:20.369Z,91.1
2016-05-28T00:32:23.307Z,91.2
2016-05-28T00:32:26.244Z,91
2016-05-28T00:32:29.041Z,91.6
2016-05-28T00:32:32.947Z,91.4
2016-05-28T00:32:35.900Z,91.3
2016-05-28T00:32:38.697Z,91.3
2016-05-28T00:32:41.510Z,91.2
2016-05-28T00:32:45.291Z,91.5
2016-05-28T00:32:48.247Z,91
2016-05-28T00:32:51.185Z,91.5
2016-05-28T00:32:53.966Z,91.5
2016-05-28T00:32:57.903Z,91
2016-05-28T00:33:00.841Z,91.5
2016-05-28T00:33:03.638Z,91
2016-05-28T00:33:06.591Z,91.2
2016-05-28T00:33:10.513Z,91.5
2016-05-28T00:33:13.466Z,91.5
2016-05-28T00:33:16.403Z,91.4
2016-05-28T00:33:19.341Z,91.6
2016-05-28T00:33:22.966Z,91.4
2016-05-28T00:33:25.903Z,91.6
2016-05-28T00:33:28.856Z,91.5
2016-05-28T00:33:31.810Z,91.6
2016-05-28T00:33:35.435Z,91.5
2016-05-28T00:33:38.388Z,91.4
2016-05-28T00:33:41.185Z,91.5
2016-05-28T00:33:43.966Z,91.6
2016-05-28T00:33:47.749Z,91.7
2016-05-28T00:33:50.702Z,91.6
2016-05-28T00:33:53.655Z,91.5
2016-05-28T00:33:56.593Z,91.3
2016-05-28T00:34:00.515Z,91.4
2016-05-28T00:34:03.312Z,91.7
2016-05-28T00:34:06.249Z,91.6
2016-05-28T00:34:09.187Z,91
2016-05-28T00:34:13.108Z,91.6
2016-05-28T00:34:15.890Z,91.6
2016-05-28T00:34:18.843Z,91.2
2016-05-28T00:34:21.796Z,91.1
2016-05-28T00:34:25.468Z,91.1
2016-05-28T00:34:28.468Z,91.5
2016-05-28T00:34:31.702Z,91
2016-05-28T00:34:34.733Z,91.5
2016-05-28T00:34:39.077Z,91.3
2016-05-28T00:34:41.890Z,91.5
2016-05-28T00:34:44.843Z,91.4
2016-05-28T00:34:48.283Z,91.4
2016-05-28T00:34:52.236Z,91.6
2016-05-28T00:34:54.893Z,91.3
2016-05-28T00:34:58.221Z,91
2016-05-28T00:35:01.361Z,91.3
2016-05-28T00:35:05.143Z,91.4
2016-05-28T00:35:08.143Z,91.1
2016-05-28T00:35:10.690Z,91.6
2016-05-28T00:35:14.408Z,91.6
2016-05-28T00:35:19.205Z,91.6
2016-05-28T00:35:22.174Z,91.5
2016-05-28T00:35:24.986Z,91.4
2016-05-28T00:35:29.627Z,91.4
2016-05-28T00:35:33.018Z,91.3
2016-05-28T00:35:35.955Z,91.4
2016-05-28T00:35:39.893Z,91.3
2016-05-28T00:35:42.830Z,91.4
2016-05-28T00:35:45.783Z,91.2
2016-05-28T00:35:48.568Z,91.1
2016-05-28T00:35:52.349Z,91.3
2016-05-28T00:35:54.989Z,91.3
2016-05-28T00:35:57.943Z,90.9
2016-05-28T00:36:00.896Z,91.4
2016-05-28T00:36:04.505Z,91
2016-05-28T00:36:07.458Z,91.2
2016-05-28T00:36:10.411Z,91.6
2016-05-28T00:36:13.349Z,90.9
2016-05-28T00:36:17.130Z,91.4
2016-05-28T00:36:20.068Z,91.5
2016-05-28T00:36:23.021Z,91.6
2016-05-28T00:36:25.989Z,91.4
2016-05-28T00:36:29.755Z,91.6
2016-05-28T00:36:32.693Z,91.7
2016-05-28T00:36:35.489Z,91.6
2016-05-28T00:36:38.427Z,91.7
2016-05-28T00:36:42.193Z,91.7
2016-05-28T00:36:45.130Z,91.6
2016-05-28T00:36:48.086Z,91.6
2016-05-28T00:36:51.024Z,91.3
2016-05-28T00:36:54.946Z,91.2
2016-05-28T00:36:57.899Z,91.1
2016-05-28T00:37:00.836Z,91
2016-05-28T00:37:03.789Z,91.3
2016-05-28T00:37:07.711Z,91.1
2016-05-28T00:37:10.664Z,91.3
2016-05-28T00:37:13.617Z,91.1
2016-05-28T00:37:16.446Z,91.3
2016-05-28T00:37:20.211Z,91.6
2016-05-28T00:37:23.149Z,91
2016-05-28T00:37:26.102Z,91.3
2016-05-28T00:37:28.883Z,91
2016-05-28T00:37:32.649Z,91.4
2016-05-28T00:37:35.586Z,91.1
2016-05-28T00:37:38.539Z,91.5
2016-05-28T00:37:41.477Z,91.7
2016-05-28T00:37:45.242Z,91.5
2016-05-28T00:37:48.198Z,91.1
2016-05-28T00:37:50.979Z,91.1
2016-05-28T00:37:53.916Z,91.6
2016-05-28T00:37:57.838Z,91.6
2016-05-28T00:38:00.791Z,91.8
2016-05-28T00:38:03.744Z,91.5
2016-05-28T00:38:06.541Z,91
2016-05-28T00:38:10.463Z,91.3
2016-05-28T00:38:13.401Z,91.4
2016-05-28T00:38:16.182Z,91.1
2016-05-28T00:38:19.135Z,91.4
2016-05-28T00:38:22.901Z,91
2016-05-28T00:38:25.557Z,91.3
2016-05-28T00:38:28.354Z,90.9
2016-05-28T00:38:31.151Z,91
2016-05-28T00:38:35.088Z,91
2016-05-28T00:38:38.026Z,91.2
2016-05-28T00:38:40.963Z,91.3
2016-05-28T00:38:43.916Z,91.1
2016-05-28T00:38:47.698Z,91.4
2016-05-28T00:38:50.654Z,91.6
2016-05-28T00:38:53.607Z,91.2
2016-05-28T00:38:56.560Z,91.1
2016-05-28T00:39:00.326Z,91.5
2016-05-28T00:39:03.263Z,91.6
2016-05-28T00:39:06.201Z,91.2
2016-05-28T00:39:08.997Z,91.4
2016-05-28T00:39:12.763Z,91.5
2016-05-28T00:39:15.576Z,91.4
2016-05-28T00:39:18.372Z,91.6
2016-05-28T00:39:21.326Z,91.6
2016-05-28T00:39:25.107Z,91.4
2016-05-28T00:39:27.591Z,91.4
2016-05-28T00:39:30.388Z,91.4
2016-05-28T00:39:33.185Z,91.5
2016-05-28T00:39:36.951Z,91.3
2016-05-28T00:39:39.888Z,91.3
2016-05-28T00:39:42.841Z,91.3
2016-05-28T00:39:45.794Z,91.6
2016-05-28T00:39:49.562Z,91.5
2016-05-28T00:39:52.343Z,91.6
2016-05-28T00:39:55.140Z,91.1
2016-05-28T00:39:58.078Z,91.2
2016-05-28T00:40:01.999Z,91.6
2016-05-28T00:40:04.937Z,91.5
2016-05-28T00:40:07.906Z,91.6
2016-05-28T00:40:10.843Z,91.5
2016-05-28T00:40:14.749Z,91.2
2016-05-28T00:40:17.546Z,91.6
2016-05-28T00:40:20.499Z,91.6
2016-05-28T00:40:23.281Z,91.7
2016-05-28T00:40:27.218Z,91.3
2016-05-28T00:40:30.156Z,91.4
2016-05-28T00:40:33.109Z,91.2
2016-05-28T00:40:36.078Z,91.4
2016-05-28T00:40:39.999Z,92
2016-05-28T00:40:42.937Z,92
2016-05-28T00:40:45.874Z,92
2016-05-28T00:40:48.815Z,91.8
2016-05-28T00:40:52.752Z,91.9
2016-05-28T00:40:55.706Z,91.8
2016-05-28T00:40:58.659Z,92.4
2016-05-28T00:41:01.612Z,92.3
2016-05-28T00:41:05.534Z,92.3
2016-05-28T00:41:08.471Z,92.2
2016-05-28T00:41:11.424Z,92.2
2016-05-28T00:41:14.362Z,92.2
2016-05-28T00:41:18.143Z,92.8
2016-05-28T00:41:21.081Z,92.3
2016-05-28T00:41:24.049Z,92.6
2016-05-28T00:41:27.018Z,92.5
2016-05-28T00:41:30.940Z,92.2
2016-05-28T00:41:33.877Z,92.2
2016-05-28T00:41:36.831Z,92.9
2016-05-28T00:41:39.768Z,92.2
2016-05-28T00:41:43.377Z,92.1
2016-05-28T00:41:46.174Z,92.1
2016-05-28T00:41:48.974Z,92.2
2016-05-28T00:41:51.927Z,92.4
2016-05-28T00:41:55.849Z,92.4
2016-05-28T00:41:58.490Z,92.5
2016-05-28T00:42:01.443Z,92.4
2016-05-28T00:42:04.396Z,92.5
2016-05-28T00:42:08.318Z,92.5
2016-05-28T00:42:11.255Z,91.9
2016-05-28T00:42:14.209Z,91.8